createdAt,value
2019-03-18T00:02:12.063Z,33.67
2019-03-18T00:04:42.936Z,35.08
2019-03-18T00:07:13.693Z,33.88
2019-03-18T00:09:44.546Z,38.80
2019-03-18T00:12:15.282Z,40.70
2019-03-18T00:14:45.935Z,37.60
2019-03-18T00:17:16.808Z,38.25
2019-03-18T00:19:47.564Z,45.35
2019-03-18T00:22:18.316Z,42.78
2019-03-18T00:24:48.969Z,42.48
2019-03-18T00:27:19.825Z,43.50
2019-03-18T00:29:50.462Z,40.00
2019-03-18T00:32:21.211Z,42.62
2019-03-18T00:34:51.880Z,39.25
2019-03-18T00:37:22.751Z,40.28
2019-03-18T00:39:53.494Z,40.30
2019-03-18T00:42:24.349Z,38.70
2019-03-18T00:44:55.080Z,41.73
2019-03-18T00:47:26.985Z,37.80
2019-03-18T00:49:57.716Z,38.23
2019-03-18T00:52:28.586Z,40.35
2019-03-18T00:54:59.243Z,40.33
2019-03-18T00:57:30.097Z,39.80
2019-03-18T01:00:00.777Z,40.23
2019-03-18T01:02:31.607Z,41.80
2019-03-18T01:05:02.257Z,40.45
2019-03-18T01:07:33.098Z,38.17
2019-03-18T01:10:04.667Z,38.42
2019-03-18T01:12:35.234Z,38.83
2019-03-18T01:15:08.037Z,37.03
2019-03-18T01:17:38.463Z,41.18
2019-03-18T01:20:13.225Z,39.08
2019-03-18T01:22:43.654Z,40.73
2019-03-18T01:25:14.201Z,41.05
2019-03-18T01:27:45.079Z,35.50
2019-03-18T01:30:15.707Z,37.60
2019-03-18T01:32:46.480Z,40.33
2019-03-18T01:35:17.130Z,39.40
2019-03-18T01:37:47.895Z,39.42
2019-03-18T01:40:18.742Z,40.63
2019-03-18T01:42:49.476Z,42.70
2019-03-18T01:45:20.027Z,44.13
2019-03-18T01:47:51.924Z,39.75
2019-03-18T01:50:22.660Z,38.60
2019-03-18T01:52:53.531Z,43.75
2019-03-18T01:55:24.288Z,42.98
2019-03-18T01:57:54.940Z,37.42
2019-03-18T02:00:25.793Z,36.80
2019-03-18T02:02:56.548Z,39.05
2019-03-18T02:05:27.300Z,38.30
2019-03-18T02:07:58.139Z,43.35
2019-03-18T02:10:28.895Z,45.03
2019-03-18T02:12:59.667Z,48.20
2019-03-18T02:15:30.303Z,47.53
2019-03-18T02:18:01.157Z,47.50
2019-03-18T02:20:31.932Z,45.75
2019-03-18T02:23:02.683Z,45.40
2019-03-18T02:25:35.978Z,43.58
2019-03-18T02:28:06.644Z,43.78
2019-03-18T02:30:37.383Z,42.88
2019-03-18T02:33:08.233Z,42.27
2019-03-18T02:35:38.888Z,40.28
2019-03-18T02:40:39.494Z,38.28
2019-03-18T02:43:10.137Z,38.10
2019-03-18T02:45:40.999Z,35.55
2019-03-18T02:48:12.756Z,36.40
2019-03-18T02:50:43.639Z,37.28
2019-03-18T02:53:14.374Z,35.20
2019-03-18T02:55:45.084Z,38.95
2019-03-18T02:58:16.022Z,38.42
2019-03-18T03:00:46.729Z,37.67
2019-03-18T03:03:17.503Z,40.23
2019-03-18T03:05:48.400Z,37.98
2019-03-18T03:08:19.221Z,38.15
2019-03-18T03:10:49.954Z,38.80
2019-03-18T03:13:20.622Z,41.73
2019-03-18T03:15:51.389Z,46.37
2019-03-18T03:18:22.229Z,43.83
2019-03-18T03:20:52.990Z,44.88
2019-03-18T03:23:23.636Z,42.03
2019-03-18T03:25:54.838Z,41.58
2019-03-18T03:28:25.262Z,39.60
2019-03-18T03:30:56.009Z,36.08
2019-03-18T03:33:26.653Z,38.28
2019-03-18T03:35:59.051Z,44.95
2019-03-18T03:38:29.675Z,43.40
2019-03-18T03:41:00.450Z,43.75
2019-03-18T03:43:31.304Z,46.85
2019-03-18T03:46:02.162Z,48.75
2019-03-18T03:48:33.003Z,45.20
2019-03-18T03:53:33.499Z,47.23
2019-03-18T03:56:04.154Z,46.60
2019-03-18T03:58:35.008Z,49.48
2019-03-18T04:01:05.847Z,49.80
2019-03-18T04:03:38.632Z,46.58
2019-03-18T04:06:08.703Z,44.48
2019-03-18T04:08:39.446Z,44.50
2019-03-18T04:11:10.315Z,45.70
2019-03-18T04:13:41.065Z,46.37
2019-03-18T04:16:11.718Z,43.70
2019-03-18T04:18:42.570Z,40.50
2019-03-18T04:21:13.325Z,38.45
2019-03-18T04:23:44.086Z,37.75
2019-03-18T04:26:14.818Z,41.08
2019-03-18T04:28:45.571Z,44.25
2019-03-18T04:31:16.340Z,42.65
2019-03-18T04:33:48.529Z,44.03
2019-03-18T04:36:19.260Z,44.05
2019-03-18T04:38:50.133Z,41.02
2019-03-18T04:41:20.769Z,40.70
2019-03-18T04:46:21.270Z,37.85
2019-03-18T04:48:52.125Z,39.18
2019-03-18T04:51:22.986Z,37.83
2019-03-18T04:53:54.229Z,37.45
2019-03-18T04:56:24.885Z,39.18
2019-03-18T04:58:55.737Z,38.83
2019-03-18T05:01:26.509Z,35.48
2019-03-18T05:03:57.263Z,37.73
2019-03-18T05:06:28.120Z,36.40
2019-03-18T05:08:58.974Z,36.03
2019-03-18T05:11:29.729Z,33.00
2019-03-18T05:14:00.381Z,33.85
2019-03-18T05:16:31.235Z,35.15
2019-03-18T05:19:01.869Z,34.45
2019-03-18T05:21:32.643Z,39.05
2019-03-18T05:24:03.380Z,33.42
2019-03-18T05:26:34.256Z,31.80
2019-03-18T05:29:04.884Z,31.20
2019-03-18T05:31:35.640Z,33.58
2019-03-18T05:36:36.049Z,33.97
2019-03-18T05:39:06.879Z,38.53
2019-03-18T05:41:37.754Z,36.15
2019-03-18T05:44:08.505Z,37.40
2019-03-18T05:46:39.259Z,35.88
2019-03-18T05:49:10.115Z,33.48
2019-03-18T05:51:40.958Z,31.90
2019-03-18T05:54:11.829Z,32.25
2019-03-18T05:56:42.477Z,31.17
2019-03-18T05:59:13.336Z,33.28
2019-03-18T06:01:44.090Z,33.78
2019-03-18T06:04:14.843Z,32.95
2019-03-18T06:06:45.696Z,34.78
2019-03-18T06:09:16.555Z,30.57
2019-03-18T06:11:47.310Z,30.15
2019-03-18T06:14:17.850Z,30.65
2019-03-18T06:16:48.702Z,30.97
2019-03-18T06:19:19.468Z,30.80
2019-03-18T06:21:50.220Z,30.08
2019-03-18T06:24:20.878Z,29.85
2019-03-18T06:26:51.798Z,32.30
2019-03-18T06:29:22.688Z,30.00
2019-03-18T06:31:53.319Z,29.60
2019-03-18T06:34:24.199Z,29.45
2019-03-18T06:36:54.949Z,27.95
2019-03-18T06:39:25.583Z,29.80
2019-03-18T06:44:26.188Z,29.15
2019-03-18T06:46:56.839Z,29.07
2019-03-18T06:49:28.718Z,29.82
2019-03-18T06:51:59.573Z,28.60
2019-03-18T06:54:30.428Z,28.65
2019-03-18T06:57:01.166Z,27.65
2019-03-18T06:59:31.834Z,27.07
2019-03-18T07:02:02.679Z,27.60
2019-03-18T07:04:33.444Z,26.00
2019-03-18T07:07:04.198Z,25.37
2019-03-18T07:09:35.055Z,23.90
2019-03-18T07:12:05.894Z,23.12
2019-03-18T07:14:36.667Z,26.57
2019-03-18T07:17:07.322Z,23.73
2019-03-18T07:19:38.176Z,21.73
2019-03-18T07:22:08.913Z,28.02
2019-03-18T07:24:39.679Z,29.42
2019-03-18T07:27:10.537Z,32.40
2019-03-18T07:29:41.275Z,34.00
2019-03-18T07:32:12.046Z,31.45
2019-03-18T07:34:42.699Z,29.20
2019-03-18T07:37:13.550Z,27.50
2019-03-18T07:39:44.305Z,28.92
2019-03-18T07:42:15.061Z,26.75
2019-03-18T07:44:45.711Z,28.75
2019-03-18T07:47:16.470Z,30.08
2019-03-18T07:49:48.348Z,28.40
2019-03-18T07:52:21.797Z,25.90
2019-03-18T07:54:51.283Z,24.72
2019-03-18T07:57:21.963Z,21.75
2019-03-18T07:59:52.802Z,22.02
2019-03-18T08:02:23.649Z,20.55
2019-03-18T08:04:54.399Z,20.20
2019-03-18T08:07:25.054Z,21.05
2019-03-18T08:09:55.909Z,19.30
2019-03-18T08:12:26.662Z,21.73
2019-03-18T08:14:57.415Z,27.87
2019-03-18T08:17:28.254Z,20.05
2019-03-18T08:19:59.132Z,20.00
2019-03-18T08:22:29.865Z,19.85
2019-03-18T08:25:00.515Z,20.80
2019-03-18T08:27:31.391Z,20.88
2019-03-18T08:30:02.148Z,20.02
2019-03-18T08:32:32.906Z,20.60
2019-03-18T08:35:03.754Z,20.77
2019-03-18T08:37:34.284Z,22.52
2019-03-18T08:40:07.733Z,21.30
2019-03-18T08:42:38.148Z,22.13
2019-03-18T08:45:10.625Z,21.65
2019-03-18T08:47:41.106Z,21.30
2019-03-18T08:50:12.868Z,19.73
2019-03-18T08:52:43.641Z,18.85
2019-03-18T08:55:14.593Z,17.55
2019-03-18T08:57:45.330Z,17.15
2019-03-18T09:00:16.916Z,19.02
2019-03-18T09:02:47.365Z,18.15
2019-03-18T09:05:18.120Z,14.50
2019-03-18T09:07:48.785Z,13.28
2019-03-18T09:10:19.627Z,12.43
2019-03-18T09:15:20.097Z,11.10
2019-03-18T09:17:50.967Z,9.50
2019-03-18T09:20:21.720Z,9.80
2019-03-18T09:22:52.370Z,7.45
2019-03-18T09:25:23.229Z,7.72
2019-03-18T09:27:54.082Z,6.28
2019-03-18T09:30:24.841Z,6.22
2019-03-18T09:32:55.474Z,6.30
2019-03-18T09:35:26.347Z,6.67
2019-03-18T09:37:57.100Z,5.95
2019-03-18T09:40:29.382Z,6.55
2019-03-18T09:43:00.142Z,6.90
2019-03-18T09:45:31.001Z,6.62
2019-03-18T09:48:01.754Z,6.85
2019-03-18T09:50:33.528Z,7.90
2019-03-18T09:53:04.183Z,7.53
2019-03-18T09:55:35.022Z,7.55
2019-03-18T09:58:05.890Z,7.83
2019-03-18T10:00:36.645Z,7.15
2019-03-18T10:03:07.298Z,6.00
2019-03-18T10:05:39.686Z,5.90
2019-03-18T10:08:10.766Z,6.25
2019-03-18T10:10:41.384Z,6.92
2019-03-18T10:13:12.256Z,7.12
2019-03-18T10:15:43.115Z,10.72
2019-03-18T10:18:13.867Z,6.92
2019-03-18T10:20:44.399Z,7.35
2019-03-18T10:23:15.275Z,5.75
2019-03-18T10:25:46.028Z,6.33
2019-03-18T10:28:16.780Z,6.97
2019-03-18T10:30:47.528Z,8.63
2019-03-18T10:33:17.870Z,7.62
2019-03-18T10:35:48.617Z,7.30
2019-03-18T10:38:19.393Z,7.80
2019-03-18T10:40:50.145Z,6.90
2019-03-18T10:43:20.790Z,7.55
2019-03-18T10:45:51.647Z,7.25
2019-03-18T10:48:22.384Z,7.45
2019-03-18T10:50:54.076Z,7.45
2019-03-18T10:53:24.850Z,7.42
2019-03-18T10:56:06.963Z,7.37
2019-03-18T10:58:27.750Z,7.03
2019-03-18T11:00:58.515Z,7.80
2019-03-18T11:03:29.277Z,6.83
2019-03-18T11:05:59.932Z,12.55
2019-03-18T11:08:30.787Z,68.28
2019-03-18T11:11:01.540Z,37.48
2019-03-18T11:13:32.293Z,61.55
2019-03-18T11:16:02.947Z,20.52
2019-03-18T11:18:33.784Z,14.28
2019-03-18T11:21:04.556Z,15.28
2019-03-18T11:23:35.308Z,12.80
2019-03-18T11:26:06.165Z,7.75
2019-03-18T11:28:37.325Z,8.25
2019-03-18T11:31:07.676Z,6.25
2019-03-18T11:33:38.327Z,4.67
2019-03-18T11:36:09.177Z,4.35
2019-03-18T11:38:40.035Z,4.53
2019-03-18T11:43:40.212Z,4.17
2019-03-18T11:46:11.068Z,5.25
2019-03-18T11:48:41.824Z,4.47
2019-03-18T11:51:13.377Z,5.85
2019-03-18T11:53:44.150Z,5.50
2019-03-18T11:56:14.785Z,5.37
2019-03-18T11:58:45.655Z,5.30
2019-03-18T12:01:16.409Z,5.25
2019-03-18T12:03:47.163Z,4.85
2019-03-18T12:06:17.900Z,5.22
2019-03-18T12:08:48.775Z,5.40
2019-03-18T12:11:19.409Z,5.28
2019-03-18T12:13:50.280Z,6.03
2019-03-18T12:16:20.814Z,5.90
2019-03-18T12:18:51.687Z,4.72
2019-03-18T12:21:22.440Z,5.15
2019-03-18T12:23:53.200Z,4.72
2019-03-18T12:26:23.726Z,5.17
2019-03-18T12:28:54.482Z,5.30
2019-03-18T12:31:25.239Z,4.90
2019-03-18T12:33:57.445Z,4.75
2019-03-18T12:36:28.498Z,4.90
2019-03-18T12:38:59.236Z,5.53
2019-03-18T12:41:30.726Z,6.05
2019-03-18T12:44:01.577Z,6.37
2019-03-18T12:46:32.211Z,5.75
2019-03-18T12:49:02.760Z,6.03
2019-03-18T12:54:04.390Z,6.87
2019-03-18T12:56:35.124Z,6.12
2019-03-18T12:59:05.779Z,6.05
2019-03-18T13:01:36.530Z,6.03
2019-03-18T13:04:07.302Z,6.62
2019-03-18T13:06:38.056Z,6.35
2019-03-18T13:09:08.690Z,6.45
2019-03-18T13:11:39.568Z,6.72
2019-03-18T13:14:10.421Z,6.95
2019-03-18T13:16:41.054Z,6.95
2019-03-18T13:19:11.709Z,14.98
2019-03-18T13:21:42.462Z,9.05
2019-03-18T13:24:13.338Z,17.15
2019-03-18T13:26:43.970Z,11.97
2019-03-18T13:29:14.619Z,7.42
2019-03-18T13:31:45.377Z,7.50
2019-03-18T13:34:16.247Z,7.30
2019-03-18T13:36:47.003Z,17.27
2019-03-18T13:39:17.670Z,12.03
2019-03-18T13:41:48.510Z,9.03
2019-03-18T13:44:19.246Z,17.37
2019-03-18T13:46:50.018Z,12.10
2019-03-18T13:49:20.670Z,10.03
2019-03-18T13:51:52.427Z,9.63
2019-03-18T13:54:23.304Z,11.40
2019-03-18T13:56:54.141Z,11.18
2019-03-18T13:59:24.794Z,12.60
2019-03-18T14:01:55.669Z,26.97
2019-03-18T14:04:26.435Z,14.35
2019-03-18T14:06:57.380Z,14.18
2019-03-18T14:09:28.134Z,19.48
2019-03-18T14:11:58.765Z,17.23
2019-03-18T14:14:29.645Z,14.47
2019-03-18T14:17:00.477Z,21.20
2019-03-18T14:19:31.130Z,18.80
2019-03-18T14:22:01.907Z,21.00
2019-03-18T14:24:32.643Z,12.03
2019-03-18T14:27:03.391Z,9.00
2019-03-18T14:29:34.165Z,11.50
2019-03-18T14:32:04.815Z,16.37
2019-03-18T14:34:35.550Z,12.28
2019-03-18T14:37:06.304Z,8.38
2019-03-18T14:39:37.061Z,8.13
2019-03-18T14:42:07.735Z,7.08
2019-03-18T14:44:38.484Z,10.38
2019-03-18T14:47:09.236Z,13.38
2019-03-18T14:49:39.874Z,12.07
2019-03-18T14:52:11.646Z,20.05
2019-03-18T14:54:42.110Z,12.50
2019-03-18T14:57:12.869Z,10.00
2019-03-18T14:59:43.722Z,8.38
2019-03-18T15:02:14.475Z,8.78
2019-03-18T15:04:45.227Z,11.08
2019-03-18T15:07:15.982Z,10.43
2019-03-18T15:09:46.837Z,9.65
2019-03-18T15:12:17.575Z,13.13
2019-03-18T15:14:48.185Z,10.40
2019-03-18T15:17:18.995Z,10.40
2019-03-18T15:19:49.854Z,11.22
2019-03-18T15:22:20.593Z,11.70
2019-03-18T15:24:51.361Z,15.10
2019-03-18T15:27:22.216Z,11.95
2019-03-18T15:29:52.971Z,12.53
2019-03-18T15:32:23.728Z,12.82
2019-03-18T15:34:54.581Z,10.65
2019-03-18T15:37:25.417Z,9.35
2019-03-18T15:39:56.192Z,11.30
2019-03-18T15:42:26.826Z,12.45
2019-03-18T15:44:57.699Z,12.03
2019-03-18T15:47:28.454Z,11.80
2019-03-18T15:49:59.208Z,12.78
2019-03-18T15:52:30.985Z,11.35
2019-03-18T15:55:01.636Z,12.68
2019-03-18T15:57:32.695Z,20.97
2019-03-18T16:00:04.043Z,20.80
2019-03-18T16:02:34.616Z,15.08
2019-03-18T16:05:06.468Z,17.15
2019-03-18T16:07:36.922Z,10.50
2019-03-18T16:10:15.464Z,13.85
2019-03-18T16:12:45.789Z,21.30
2019-03-18T16:15:17.196Z,22.77
2019-03-18T16:17:47.622Z,20.02
2019-03-18T16:20:26.053Z,24.40
2019-03-18T16:22:56.477Z,27.93
2019-03-18T16:25:27.128Z,34.80
2019-03-18T16:27:58.396Z,27.30
2019-03-18T16:30:29.049Z,29.10
2019-03-18T16:35:29.753Z,30.30
2019-03-18T16:38:00.403Z,23.60
2019-03-18T16:40:31.143Z,25.30
2019-03-18T16:43:02.014Z,26.68
2019-03-18T16:45:32.766Z,25.10
2019-03-18T16:48:03.421Z,29.77
2019-03-18T16:50:34.275Z,29.27
2019-03-18T16:53:06.160Z,28.67
2019-03-18T16:55:36.790Z,21.07
2019-03-18T16:58:07.768Z,19.42
2019-03-18T17:00:38.621Z,19.00
2019-03-18T17:03:09.477Z,19.25
2019-03-18T17:05:40.231Z,20.10
2019-03-18T17:08:10.883Z,17.82
2019-03-18T17:10:41.737Z,16.25
2019-03-18T17:13:12.495Z,14.40
2019-03-18T17:15:43.246Z,15.25
2019-03-18T17:18:13.984Z,15.70
2019-03-18T17:20:44.736Z,14.93
2019-03-18T17:23:15.584Z,14.93
2019-03-18T17:25:46.347Z,14.73
2019-03-18T17:28:17.222Z,14.47
2019-03-18T17:30:47.870Z,13.62
2019-03-18T17:33:18.625Z,14.13
2019-03-18T17:35:49.160Z,15.48
2019-03-18T17:38:20.032Z,14.70
2019-03-18T17:40:50.784Z,13.95
2019-03-18T17:43:21.435Z,15.30
2019-03-18T17:45:52.089Z,15.45
2019-03-18T17:48:22.945Z,17.32
2019-03-18T17:50:53.699Z,16.37
2019-03-18T17:53:24.558Z,17.02
2019-03-18T17:55:55.293Z,15.23
2019-03-18T17:58:26.166Z,15.70
2019-03-18T18:00:58.457Z,16.60
2019-03-18T18:03:29.109Z,17.57
2019-03-18T18:05:59.961Z,17.25
2019-03-18T18:08:30.713Z,16.62
2019-03-18T18:11:02.165Z,15.55
2019-03-18T18:13:33.239Z,15.93
2019-03-18T18:16:05.001Z,22.35
2019-03-18T18:18:35.754Z,23.12
2019-03-18T18:21:06.509Z,21.70
2019-03-18T18:23:37.384Z,19.02
2019-03-18T18:26:08.040Z,19.87
2019-03-18T18:31:08.212Z,19.77
2019-03-18T18:33:39.003Z,20.43
2019-03-18T18:36:09.719Z,16.70
2019-03-18T18:38:40.884Z,19.45
2019-03-18T18:41:11.643Z,21.45
2019-03-18T18:43:42.287Z,28.17
2019-03-18T18:46:13.207Z,27.93
2019-03-18T18:48:44.006Z,21.27
2019-03-18T18:51:14.746Z,18.23
2019-03-18T18:53:45.509Z,19.00
2019-03-18T18:56:16.369Z,17.60
2019-03-18T18:58:47.221Z,20.48
2019-03-18T19:01:17.874Z,19.42
2019-03-18T19:03:48.729Z,17.90
2019-03-18T19:06:19.482Z,18.48
2019-03-18T19:08:50.220Z,18.80
2019-03-18T19:11:20.776Z,16.87
2019-03-18T19:13:51.642Z,16.60
2019-03-18T19:16:22.496Z,17.67
2019-03-18T19:18:53.355Z,17.35
2019-03-18T19:21:24.089Z,15.95
2019-03-18T19:23:54.964Z,15.70
2019-03-18T19:26:25.597Z,16.42
2019-03-18T19:28:57.186Z,14.95
2019-03-18T19:31:27.940Z,15.35
2019-03-18T19:33:58.591Z,15.53
2019-03-18T19:36:29.448Z,15.25
2019-03-18T19:39:00.206Z,15.43
2019-03-18T19:41:32.626Z,16.02
2019-03-18T19:44:03.450Z,15.90
2019-03-18T19:46:34.305Z,14.47
2019-03-18T19:49:05.163Z,15.53
2019-03-18T19:51:37.333Z,15.55
2019-03-18T19:54:08.101Z,15.28
2019-03-18T19:56:38.737Z,14.95
2019-03-18T19:59:09.514Z,15.60
2019-03-18T20:01:40.264Z,14.83
2019-03-18T20:04:10.912Z,14.87
2019-03-18T20:06:41.650Z,15.43
2019-03-18T20:09:12.534Z,14.53
2019-03-18T20:11:43.275Z,16.17
2019-03-18T20:14:14.011Z,15.35
2019-03-18T20:16:44.764Z,14.58
2019-03-18T20:19:15.534Z,14.65
2019-03-18T20:21:46.195Z,15.03
2019-03-18T20:24:17.043Z,14.65
2019-03-18T20:26:47.904Z,15.68
2019-03-18T20:29:18.653Z,15.95
2019-03-18T20:31:49.305Z,15.75
2019-03-18T20:34:21.465Z,15.93
2019-03-18T20:36:52.125Z,15.38
2019-03-18T20:39:22.900Z,14.33
2019-03-18T20:41:53.539Z,16.30
2019-03-18T21:58:03.929Z,11.45
2019-03-18T22:00:34.679Z,11.10
2019-03-18T22:03:05.534Z,11.35
2019-03-18T22:05:36.290Z,11.38
2019-03-18T22:08:07.042Z,11.08
2019-03-18T22:10:37.898Z,10.63
2019-03-18T22:13:08.640Z,12.43
2019-03-18T22:15:39.406Z,11.15
2019-03-18T22:18:10.042Z,11.48
2019-03-18T22:20:40.915Z,12.43
2019-03-18T22:23:11.770Z,11.78
2019-03-18T22:25:42.406Z,11.70
2019-03-18T22:30:42.992Z,12.00
2019-03-18T22:33:13.643Z,11.78
2019-03-18T22:35:44.519Z,10.30
2019-03-18T22:38:15.254Z,11.63
2019-03-18T22:40:45.903Z,12.45
2019-03-18T22:45:46.493Z,11.22
2019-03-18T22:48:17.264Z,11.88
2019-03-18T22:50:48.118Z,15.08
2019-03-18T22:53:18.973Z,13.55
2019-03-18T22:55:49.834Z,12.60
2019-03-18T22:58:20.690Z,12.00
2019-03-18T23:00:53.078Z,11.57
2019-03-18T23:03:23.711Z,11.78
2019-03-18T23:08:23.994Z,13.20
2019-03-18T23:10:54.761Z,14.58
2019-03-18T23:13:25.401Z,14.13
2019-03-18T23:15:56.152Z,12.68
2019-03-18T23:18:27.027Z,11.28
2019-03-18T23:20:57.779Z,13.65
2019-03-18T23:23:28.430Z,16.27
2019-03-18T23:25:59.166Z,17.57
2019-03-18T23:28:29.937Z,15.40
2019-03-18T23:31:00.574Z,15.90
2019-03-18T23:36:01.280Z,16.27
2019-03-18T23:38:31.930Z,15.10
2019-03-18T23:41:02.790Z,15.83
2019-03-18T23:43:33.539Z,16.73
2019-03-18T23:46:04.297Z,19.27
2019-03-18T23:48:34.947Z,18.52
2019-03-18T23:51:05.807Z,16.80
2019-03-18T23:53:36.555Z,16.80
2019-03-18T23:56:08.230Z,16.65
2019-03-18T23:58:38.982Z,19.05
